Time;durP1;ratioP1;P1;durP2;ratioP2;P2;SDS_P1;SDS_P2;PMS_P1;PMS_P2;Temp;Humidity;BMP_temperature;BMP_pressure;BME280_temperature;BME280_humidity;BME280_pressure;Samples;Min_cycle;Max_cycle;Signal;HPM_P1;HPM_P2
2022/03/21 00:01:56;;;;;;;10.43;6.77;;;;;;;0.73;79.62;103859.69;4957831;28;20270;-67
2022/03/21 00:04:22;;;;;;;13.65;5.57;;;;;;;0.67;79.42;103850.16;4957621;28;20027;-68
2022/03/21 00:06:48;;;;;;;7.93;5.57;;;;;;;0.48;79.60;103819.84;4958727;28;20375;-69
2022/03/21 00:09:13;;;;;;;9.17;4.50;;;;;;;0.73;79.97;103862.31;4955726;29;20271;-68
2022/03/21 00:11:45;;;;;;;10.80;4.00;;;;;;;0.78;79.32;103866.59;4955393;29;20023;-68
2022/03/21 00:14:11;;;;;;;9.77;4.30;;;;;;;0.74;79.76;103862.28;4954378;28;20027;-68
2022/03/21 00:16:39;;;;;;;6.20;4.10;;;;;;;0.67;79.80;103850.16;4954658;28;20729;-67
2022/03/21 00:19:05;;;;;;;6.77;4.13;;;;;;;0.72;79.23;103858.84;4954838;28;20275;-67
2022/03/21 00:21:30;;;;;;;6.93;4.20;;;;;;;0.74;79.33;103862.28;4955641;28;20297;-67
2022/03/21 00:23:56;;;;;;;5.23;3.67;;;;;;;0.72;78.69;103850.97;4955794;28;20035;-66
2022/03/21 00:26:21;;;;;;;6.20;3.90;;;;;;;0.75;79.03;103853.53;4955104;28;20034;-69
2022/03/21 00:28:47;;;;;;;7.27;3.40;;;;;;;0.73;79.08;103838.72;4955061;29;20069;-67
2022/03/21 00:31:13;;;;;;;6.00;3.33;;;;;;;0.64;78.65;103826.63;4954883;28;20024;-67
2022/03/21 00:33:39;;;;;;;4.47;2.67;;;;;;;0.76;78.42;103850.03;4954563;28;20077;-66
2022/03/21 00:36:22;;;;;;;6.80;3.83;;;;;;;0.76;78.57;103850.03;4955233;28;20113;-67
2022/03/21 00:38:47;;;;;;;7.23;3.57;;;;;;;0.49;78.63;103803.22;4955711;28;20475;-68
2022/03/21 00:41:13;;;;;;;8.07;3.20;;;;;;;0.67;78.53;103836.19;4957462;28;20278;-66
2022/03/21 00:43:38;;;;;;;6.57;3.10;;;;;;;0.68;78.38;103841.41;4959071;28;20034;-67
2022/03/21 00:46:08;;;;;;;6.77;3.97;;;;;;;0.73;78.82;103860.56;4959039;28;20071;-67
2022/03/21 00:48:33;;;;;;;6.90;4.40;;;;;;;0.67;78.43;103839.69;4959281;28;20043;-67
2022/03/21 00:51:00;;;;;;;5.90;3.87;;;;;;;0.67;78.60;103829.19;4958401;29;20318;-68
2022/03/21 00:53:26;;;;;;;6.93;5.23;;;;;;;0.63;78.96;103838.00;4958811;28;20035;-66
2022/03/21 00:55:55;;;;;;;7.13;5.07;;;;;;;0.67;78.83;103844.94;4958319;28;20266;-67
2022/03/21 00:58:21;;;;;;;7.23;4.67;;;;;;;0.51;78.55;103819.81;4958195;28;20549;-67
2022/03/21 01:00:47;;;;;;;9.30;5.90;;;;;;;0.50;79.25;103820.69;4958398;28;20261;-66
2022/03/21 01:03:13;;;;;;;16.40;5.90;;;;;;;0.46;79.15;103817.25;4959341;29;20050;-68
2022/03/21 01:05:40;;;;;;;11.77;5.47;;;;;;;0.33;79.73;103784.25;4958237;28;20267;-66
2022/03/21 01:08:06;;;;;;;8.70;4.33;;;;;;;0.44;79.55;103800.69;4958806;28;20279;-66
2022/03/21 01:10:36;;;;;;;10.43;5.40;;;;;;;0.39;79.48;103785.91;4960172;29;20274;-68
2022/03/21 01:13:02;;;;;;;7.30;4.87;;;;;;;0.28;79.88;103788.69;4962021;28;20759;-68
2022/03/21 01:15:31;;;;;;;10.63;4.93;;;;;;;0.16;80.30;103758.28;4958914;28;20259;-66
2022/03/21 01:17:57;;;;;;;7.22;5.68;;;;;;;0.27;80.25;103787.81;4958257;29;20323;-68
2022/03/21 01:20:24;;;;;;;13.30;5.60;;;;;;;0.09;80.23;103764.50;4958156;28;20116;-67
2022/03/21 01:22:53;;;;;;;8.10;5.97;;;;;;;0.20;80.20;103770.44;4958020;28;20252;-68
2022/03/21 01:25:19;;;;;;;9.90;6.87;;;;;;;0.11;80.41;103770.59;4958203;28;20298;-69
2022/03/21 01:27:45;;;;;;;9.10;5.50;;;;;;;0.17;80.70;103774.88;4957794;28;20291;-67
2022/03/21 01:30:12;;;;;;;10.30;6.10;;;;;;;0.13;80.79;103768.81;4956331;29;20031;-70
2022/03/21 01:32:42;;;;;;;9.03;6.50;;;;;;;0.04;80.68;103758.47;4958030;28;20073;-67
2022/03/21 01:35:09;;;;;;;8.67;5.70;;;;;;;0.14;80.86;103770.53;4957739;28;20793;-68
2022/03/21 01:37:35;;;;;;;8.83;5.50;;;;;;;0.28;80.66;103779.06;4958217;28;20278;-68
2022/03/21 01:40:01;;;;;;;9.03;5.27;;;;;;;0.18;80.18;103746.03;4957978;28;20266;-66
2022/03/21 01:42:26;;;;;;;9.83;5.43;;;;;;;0.37;79.78;103769.34;4957683;28;20338;-67
2022/03/21 01:44:58;;;;;;;7.37;4.90;;;;;;;0.15;79.33;103725.09;4957173;28;20042;-68
2022/03/21 01:47:25;;;;;;;10.67;5.57;;;;;;;0.33;79.05;103746.69;4957265;29;20050;-68
2022/03/21 01:49:51;;;;;;;11.70;5.27;;;;;;;0.35;79.43;103765.88;4957756;28;20259;-69
2022/03/21 01:52:20;;;;;;;7.67;5.10;;;;;;;0.40;79.32;103774.53;4956728;28;20037;-70
2022/03/21 01:57:30;;;;;;;13.20;6.20;;;;;;;0.30;79.56;103758.97;4956237;29;20081;-69
2022/03/21 01:59:59;;;;;;;9.67;5.03;;;;;;;0.14;79.74;103739.09;4957473;29;20263;-68
2022/03/21 02:02:25;;;;;;;12.07;5.23;;;;;;;0.18;80.23;103759.13;4957126;28;20034;-69
2022/03/21 02:04:51;;;;;;;9.53;6.53;;;;;;;0.14;79.99;103754.81;4957195;28;20255;-68
2022/03/21 02:07:17;;;;;;;7.47;5.50;;;;;;;0.12;80.40;103751.34;4956969;28;20027;-69
2022/03/21 02:09:53;;;;;;;8.63;5.57;;;;;;;0.08;79.87;103748.81;4956642;28;20050;-68
2022/03/21 02:12:22;;;;;;;10.33;5.80;;;;;;;0.14;80.14;103759.19;4957222;28;20289;-68
2022/03/21 02:14:48;;;;;;;7.83;5.83;;;;;;;0.06;80.07;103748.84;4956990;28;20267;-69
2022/03/21 02:17:22;;;;;;;9.07;4.93;;;;;;;0.09;80.39;103751.41;4956577;28;20771;-69
2022/03/21 02:19:49;;;;;;;11.73;5.43;;;;;;;0.00;80.71;103743.69;4956732;28;20607;-69
2022/03/21 02:22:38;;;;;;;7.43;4.70;;;;;;;0.08;79.86;103759.28;4956647;28;20350;-68
2022/03/21 02:25:16;;;;;;;8.97;5.40;;;;;;;0.02;79.85;103741.03;4956290;29;20255;-68
2022/03/21 02:27:46;;;;;;;9.33;4.70;;;;;;;-0.58;79.57;103639.69;4956095;29;20349;-69
2022/03/21 02:30:13;;;;;;;14.83;5.33;;;;;;;0.04;80.01;103753.22;4956575;28;20263;-68
2022/03/21 02:32:40;;;;;;;8.63;5.43;;;;;;;-0.27;79.95;103704.78;4956594;28;20589;-68
2022/03/21 02:35:09;;;;;;;9.40;5.43;;;;;;;-0.02;80.05;103754.16;4955464;29;20258;-68
2022/03/21 02:37:36;;;;;;;9.73;4.73;;;;;;;-0.09;80.39;103751.66;4956464;28;20297;-68
2022/03/21 02:40:03;;;;;;;9.27;4.60;;;;;;;-0.18;80.17;103743.94;4956336;28;20267;-70
2022/03/21 02:42:28;;;;;;;8.90;5.33;;;;;;;-0.17;80.74;103757.00;4956673;28;20263;-68
2022/03/21 02:44:58;;;;;;;9.30;5.73;;;;;;;-0.31;80.95;103735.34;4956131;28;20338;-68
2022/03/21 02:47:24;;;;;;;11.23;5.77;;;;;;;-0.23;80.79;103748.38;4956279;29;20388;-69
2022/03/21 02:49:51;;;;;;;10.43;6.03;;;;;;;-0.22;80.67;103747.47;4957352;29;20271;-68
2022/03/21 02:52:20;;;;;;;9.47;7.27;;;;;;;-0.24;80.96;103751.88;4956351;28;20056;-68
2022/03/21 02:54:46;;;;;;;11.10;6.73;;;;;;;-0.27;80.86;103746.69;4955729;28;20834;-69
2022/03/21 02:57:11;;;;;;;9.30;6.87;;;;;;;-0.26;81.44;103744.03;4957371;28;20370;-68
2022/03/21 02:59:38;;;;;;;9.30;6.00;;;;;;;-0.18;80.80;103749.16;4959884;28;20039;-66
2022/03/21 03:02:03;;;;;;;10.40;5.67;;;;;;;-0.23;80.58;103733.50;4957733;28;20057;-68
2022/03/21 03:04:29;;;;;;;7.37;4.30;;;;;;;-0.13;80.54;103748.22;4958712;28;20267;-68
2022/03/21 03:06:58;;;;;;;9.80;3.70;;;;;;;-0.09;80.17;103756.88;4959765;28;20031;-68
2022/03/21 03:09:24;;;;;;;6.60;3.95;;;;;;;-0.13;80.18;103760.44;4959785;29;20321;-68
2022/03/21 03:11:50;;;;;;;7.17;4.10;;;;;;;-0.08;80.46;103763.88;4958985;28;20427;-67
2022/03/21 03:14:16;;;;;;;10.87;3.50;;;;;;;-0.20;80.29;103736.09;4959810;28;20046;-67
2022/03/21 03:16:44;;;;;;;9.20;4.97;;;;;;;-0.07;80.37;103765.59;4960657;28;20255;-69
2022/03/21 03:19:10;;;;;;;5.30;3.30;;;;;;;-0.04;79.88;103760.31;4962041;28;20038;-69
2022/03/21 03:21:46;;;;;;;12.50;4.50;;;;;;;-0.09;79.93;103746.41;4962032;28;20035;-68
2022/03/21 03:24:12;;;;;;;9.77;5.10;;;;;;;-0.04;79.72;103750.69;4959776;28;20361;-71
2022/03/21 03:26:57;;;;;;;8.17;4.80;;;;;;;-0.06;79.88;103748.97;4957916;28;20271;-67
2022/03/21 03:29:46;;;;;;;7.30;4.35;;;;;;;-0.09;79.72;103741.16;4954843;29;20043;-69
2022/03/21 03:32:12;;;;;;;11.50;4.20;;;;;;;-0.29;80.07;103709.13;4954388;29;20038;-68
2022/03/21 03:34:41;;;;;;;7.97;4.63;;;;;;;-0.21;80.60;103734.38;4953893;29;20105;-67
2022/03/21 03:37:07;;;;;;;8.50;4.67;;;;;;;-0.18;80.14;103734.31;4955746;28;20082;-67
2022/03/21 03:39:33;;;;;;;6.43;4.40;;;;;;;-0.19;80.52;103735.22;4955587;28;20279;-68
2022/03/21 03:41:58;;;;;;;7.20;4.20;;;;;;;-0.22;80.11;103742.25;4955262;29;20031;-68
2022/03/21 03:44:30;;;;;;;8.63;4.77;;;;;;;-0.15;80.09;103756.97;4956303;28;20519;-67
2022/03/21 03:47:00;;;;;;;6.37;3.67;;;;;;;-0.45;80.43;103722.44;4956093;28;20051;-68
2022/03/21 03:49:26;;;;;;;7.73;4.03;;;;;;;-0.14;80.56;103764.81;4956246;28;20283;-66
2022/03/21 03:51:52;;;;;;;10.43;4.10;;;;;;;-0.32;80.17;103739.72;4955213;28;20279;-68
2022/03/21 03:54:18;;;;;;;8.67;4.17;;;;;;;-0.21;79.83;103768.41;4954917;28;20348;-64
2022/03/21 03:56:43;;;;;;;6.03;3.93;;;;;;;-0.50;80.29;103724.25;4955335;28;20519;-68
2022/03/21 03:59:09;;;;;;;7.67;4.20;;;;;;;-0.29;80.14;103764.13;4956248;28;20039;-68
2022/03/21 04:01:35;;;;;;;6.67;4.57;;;;;;;-0.25;80.29;103765.84;4955195;28;20023;-66
2022/03/21 04:04:00;;;;;;;6.93;4.73;;;;;;;-0.38;80.21;103745.03;4954247;29;20090;-66
2022/03/21 04:06:27;;;;;;;11.67;6.40;;;;;;;-0.32;80.39;103759.81;4953785;29;20391;-65
2022/03/21 04:08:53;;;;;;;7.97;4.30;;;;;;;-0.33;80.45;103752.84;4956946;28;20263;-67
2022/03/21 04:11:25;;;;;;;8.50;4.93;;;;;;;-0.23;80.07;103775.44;4954634;28;20790;-66
2022/03/21 04:13:51;;;;;;;8.20;4.30;;;;;;;-0.22;79.99;103771.06;4955148;28;20035;-69
2022/03/21 04:16:18;;;;;;;16.73;6.40;;;;;;;-0.22;79.86;103769.31;4953160;28;20318;-65
2022/03/21 04:18:43;;;;;;;13.70;5.30;;;;;;;-0.24;79.81;103759.72;4954746;28;20286;-64
2022/03/21 04:21:09;;;;;;;9.00;4.60;;;;;;;-0.17;79.19;103769.22;4954911;28;20290;-75
2022/03/21 04:23:36;;;;;;;8.27;5.10;;;;;;;-0.17;79.69;103764.88;4954063;29;20031;-67
2022/03/21 04:26:01;;;;;;;14.43;5.33;;;;;;;-0.22;79.32;103748.34;4954601;28;20024;-64
2022/03/21 04:28:33;;;;;;;7.57;5.17;;;;;;;-0.24;79.12;103744.03;4953876;29;20614;-65
2022/03/21 04:30:59;;;;;;;11.77;5.40;;;;;;;-0.21;79.13;103746.59;4954470;29;20027;-65
2022/03/21 04:33:24;;;;;;;7.03;5.27;;;;;;;-0.28;79.14;103734.47;4954459;28;20274;-65
2022/03/21 04:35:50;;;;;;;11.27;6.20;;;;;;;-0.24;79.63;103752.75;4955072;29;20059;-65
2022/03/21 04:38:16;;;;;;;15.87;6.93;;;;;;;-0.42;79.58;103719.78;4956728;29;20035;-75
2022/03/21 04:40:47;;;;;;;10.60;5.60;;;;;;;-0.34;79.66;103725.78;4939622;29;20555;-70
2022/03/21 04:43:18;;;;;;;10.23;5.30;;;;;;;-0.20;79.61;103743.94;4955106;28;20275;-64
2022/03/21 04:45:51;;;;;;;9.07;5.70;;;;;;;-0.23;79.35;103753.59;4954743;28;20322;-63
2022/03/21 04:48:20;;;;;;;10.17;4.80;;;;;;;-0.24;79.39;103746.63;4954701;28;20315;-64
2022/03/21 04:50:46;;;;;;;;;;;;;;;-0.15;79.53;103751.75;4954987;28;20293;-65
2022/03/21 04:53:12;;;;;;;9.03;4.87;;;;;;;-0.24;79.73;103738.78;4953631;28;20425;-63
2022/03/21 04:55:40;;;;;;;7.67;5.10;;;;;;;-0.18;79.22;103749.16;4954087;28;20062;-64
2022/03/21 04:58:05;;;;;;;13.83;6.63;;;;;;;-0.26;79.01;103738.81;4936317;29;20464;-64
2022/03/21 05:00:31;;;;;;;10.33;6.03;;;;;;;-0.18;78.99;103755.28;4953704;28;20267;-63
2022/03/21 05:03:07;;;;;;;8.10;6.30;;;;;;;-0.11;79.22;103766.53;4953385;29;20378;-64
2022/03/21 05:05:39;;;;;;;12.23;6.30;;;;;;;-0.37;78.92;103720.59;4954796;28;20034;-63
2022/03/21 05:08:04;;;;;;;16.87;6.77;;;;;;;-0.19;78.62;103750.91;4954259;29;20663;-64
2022/03/21 05:10:34;;;;;;;10.47;6.07;;;;;;;-0.04;78.91;103765.56;4954152;28;20255;-64
2022/03/21 05:13:00;;;;;;;11.77;5.57;;;;;;;-0.06;78.65;103767.31;4954531;28;20526;-62
2022/03/21 05:15:26;;;;;;;12.13;5.57;;;;;;;-0.16;78.90;103750.00;4953318;29;20254;-62
2022/03/21 05:18:17;;;;;;;13.23;5.40;;;;;;;-0.28;78.47;103721.38;4954480;29;20070;-64
2022/03/21 05:20:43;;;;;;;7.27;5.07;;;;;;;-0.05;78.64;103763.81;4954271;29;20662;-63
2022/03/21 05:31:22;;;;;;;9.80;4.80;;;;;;;0.19;76.80;103773.97;4956063;29;20251;-62
2022/03/21 05:36:38;;;;;;;11.03;5.27;;;;;;;0.14;76.87;103753.97;4957279;29;20090;-66
2022/03/21 05:39:04;;;;;;;9.90;5.15;;;;;;;0.23;76.39;103757.28;4956637;29;20290;-68
2022/03/21 05:41:29;;;;;;;11.53;5.77;;;;;;;0.20;76.85;103744.25;4957019;28;20031;-67
2022/03/21 05:43:55;;;;;;;9.40;5.67;;;;;;;0.36;75.85;103765.88;4956658;28;20483;-66
2022/03/21 05:46:22;;;;;;;18.20;6.57;;;;;;;0.41;76.31;103760.53;4956655;28;20058;-65
2022/03/21 05:48:51;;;;;;;10.97;6.47;;;;;;;0.41;75.49;103757.91;4956645;28;20047;-66
2022/03/21 05:51:37;;;;;;;8.38;5.85;;;;;;;0.54;75.07;103776.03;4956629;28;20267;-66
2022/03/21 05:54:06;;;;;;;9.27;4.83;;;;;;;0.52;75.19;103759.47;4956389;29;20419;-66
2022/03/21 05:56:32;;;;;;;15.32;5.32;;;;;;;0.65;74.94;103767.16;4956457;28;20341;-68
2022/03/21 06:00:20;;;;;;;10.77;4.83;;;;;;;0.68;74.55;103767.97;4956601;28;20483;-70
2022/03/21 06:01:47;;;;;;;14.03;4.77;;;;;;;0.65;74.13;103761.91;4956612;29;20289;-68
2022/03/21 06:04:14;;;;;;;13.80;4.63;;;;;;;0.73;74.18;103754.75;4961164;28;20337;-66
2022/03/21 06:06:40;;;;;;;11.73;4.50;;;;;;;0.76;74.18;103763.44;4975715;28;20333;-68
2022/03/21 06:09:05;;;;;;;10.17;5.00;;;;;;;0.86;74.20;103772.88;4973410;28;20301;-62
2022/03/21 06:11:31;;;;;;;9.40;5.10;;;;;;;0.83;73.56;103756.34;4958110;28;20035;-63
2022/03/21 06:13:57;;;;;;;10.00;5.27;;;;;;;0.86;73.52;103777.25;4958192;29;20039;-62
2022/03/21 06:16:22;;;;;;;10.70;6.10;;;;;;;0.79;73.56;103752.03;4957254;29;20394;-61
2022/03/21 06:18:48;;;;;;;12.93;7.10;;;;;;;0.96;73.60;103770.13;4939579;29;20062;-62
2022/03/21 06:21:14;;;;;;;18.80;7.63;;;;;;;1.05;73.50;103772.56;4956378;29;20349;-66
2022/03/21 06:23:40;;;;;;;16.40;6.23;;;;;;;1.15;73.37;103776.75;4955527;29;20031;-61
2022/03/21 06:26:06;;;;;;;15.30;5.73;;;;;;;1.16;72.98;103774.13;4955482;29;20506;-63
2022/03/21 06:28:32;;;;;;;21.03;5.80;;;;;;;1.16;72.51;103762.75;4955761;29;20486;-66
2022/03/21 06:30:58;;;;;;;12.93;5.80;;;;;;;1.06;71.87;103733.16;4957967;28;20266;-64
2022/03/21 06:33:28;;;;;;;13.70;6.83;;;;;;;1.31;71.92;103769.47;4964748;28;20270;-62
2022/03/21 06:35:55;;;;;;;13.90;6.90;;;;;;;1.39;72.09;103767.53;4955700;29;20106;-64
2022/03/21 06:38:21;;;;;;;13.37;6.10;;;;;;;1.47;71.43;103779.66;4955106;28;20286;-64
2022/03/21 06:40:46;;;;;;;10.07;5.33;;;;;;;1.51;71.58;103768.19;4955456;29;20262;-65
2022/03/21 06:43:13;;;;;;;19.63;7.30;;;;;;;1.60;70.99;103776.75;4956084;29;20034;-67
2022/03/21 06:45:39;;;;;;;14.97;7.13;;;;;;;1.51;70.81;103751.56;4956239;29;20058;-65
2022/03/21 06:48:07;;;;;;;13.33;6.77;;;;;;;1.66;70.70;103776.63;4938571;29;20279;-66
2022/03/21 06:50:33;;;;;;;14.73;7.20;;;;;;;1.71;70.70;103766.88;4956678;29;20270;-64
2022/03/21 06:52:58;;;;;;;20.87;7.07;;;;;;;1.87;70.18;103789.34;4956674;29;20267;-69
2022/03/21 06:55:24;;;;;;;15.00;6.77;;;;;;;1.86;69.87;103790.22;4955414;29;20313;-64
2022/03/21 06:57:50;;;;;;;11.03;5.93;;;;;;;1.86;70.13;103771.84;4955441;29;20502;-66
2022/03/21 07:00:16;;;;;;;15.33;5.63;;;;;;;1.98;69.79;103779.44;4955288;29;20270;-64
2022/03/21 07:02:43;;;;;;;15.97;4.90;;;;;;;2.06;70.15;103798.56;4955122;29;20427;-66
2022/03/21 07:05:09;;;;;;;13.40;4.93;;;;;;;2.12;69.83;103787.03;4955046;29;20321;-67
2022/03/21 07:07:37;;;;;;;32.40;7.73;;;;;;;2.14;69.50;103790.50;4955065;29;20259;-65
2022/03/21 07:10:23;;;;;;;13.02;5.93;;;;;;;2.23;69.30;103794.69;4955527;29;20046;-68
2022/03/21 07:12:52;;;;;;;10.27;5.25;;;;;;;2.28;69.04;103787.53;4938937;29;20031;-70
2022/03/21 07:15:17;;;;;;;9.43;6.07;;;;;;;2.29;68.68;103784.00;4955329;29;20542;-68
2022/03/21 07:17:43;;;;;;;14.63;5.83;;;;;;;2.40;68.73;103792.53;4954958;29;20086;-70
2022/03/21 07:20:11;;;;;;;22.80;5.43;;;;;;;2.42;68.71;103788.09;4955517;29;20050;-65
2022/03/21 07:22:36;;;;;;;16.77;4.87;;;;;;;2.48;68.40;103791.44;4955084;29;20306;-67
2022/03/21 07:25:02;;;;;;;19.03;6.10;;;;;;;2.52;68.37;103784.34;4957513;29;20794;-63
2022/03/21 07:27:28;;;;;;;16.00;5.80;;;;;;;2.63;67.91;103790.22;4956403;29;20514;-70
2022/03/21 07:29:54;;;;;;;14.83;6.43;;;;;;;2.71;67.61;103788.28;4957002;29;20262;-68
2022/03/21 07:32:19;;;;;;;20.27;6.50;;;;;;;2.64;67.81;103781.44;4955436;29;20050;-71
2022/03/21 07:34:45;;;;;;;14.60;5.13;;;;;;;2.67;67.21;103778.72;4955945;29;20122;-70
2022/03/21 07:37:11;;;;;;;17.50;6.40;;;;;;;2.86;67.39;103797.53;4955806;29;20031;-66
2022/03/21 07:39:37;;;;;;;20.53;5.53;;;;;;;2.94;67.26;103786.84;4954783;29;20380;-66
2022/03/21 07:42:03;;;;;;;12.30;5.37;;;;;;;2.80;66.62;103774.00;4953975;29;20356;-65
2022/03/21 07:47:23;;;;;;;26.00;6.50;;;;;;;3.18;66.38;103794.09;4954386;29;20041;-65
2022/03/21 07:49:53;;;;;;;26.00;5.30;;;;;;;3.34;66.40;103795.38;4954054;28;20274;-65
2022/03/21 07:52:20;;;;;;;25.23;5.93;;;;;;;3.43;65.53;103804.81;4954475;29;20711;-66
2022/03/21 07:54:53;;;;;;;21.47;6.23;;;;;;;3.50;65.05;103806.38;4954625;29;20259;-66
2022/03/21 07:57:20;;;;;;;25.23;5.03;;;;;;;3.53;65.07;103792.25;4954457;29;20283;-70
2022/03/21 07:59:46;;;;;;;22.30;6.43;;;;;;;3.62;64.98;103799.91;4954055;29;20275;-72
2022/03/21 08:02:12;;;;;;;14.73;5.17;;;;;;;3.69;64.73;103801.44;4954365;29;20270;-63
2022/03/21 08:04:38;;;;;;;19.80;5.57;;;;;;;3.77;64.10;103804.75;4939721;28;20015;-66
2022/03/21 08:07:03;;;;;;;21.27;5.37;;;;;;;3.79;63.77;103783.63;4954074;29;20271;-63
2022/03/21 08:09:29;;;;;;;18.80;5.60;;;;;;;3.94;63.75;103797.19;4939678;29;20030;-65
2022/03/21 08:11:55;;;;;;;22.83;6.50;;;;;;;4.00;62.99;103797.00;4953953;29;20110;-65
2022/03/21 08:14:21;;;;;;;21.40;8.30;;;;;;;4.07;62.98;103796.84;4953853;29;20058;-65
2022/03/21 08:16:47;;;;;;;18.80;5.47;;;;;;;4.12;62.56;103792.28;4954625;29;20931;-65
2022/03/21 08:19:12;;;;;;;12.40;4.87;;;;;;;4.13;62.21;103781.69;4955575;29;20058;-64
2022/03/21 08:21:38;;;;;;;20.83;4.43;;;;;;;4.06;61.84;103753.78;4954528;29;20050;-61
2022/03/21 08:24:04;;;;;;;18.27;5.63;;;;;;;4.32;61.94;103779.31;4937653;29;20063;-66
2022/03/21 08:26:29;;;;;;;11.37;4.33;;;;;;;4.37;61.40;103776.56;4957211;29;20019;-66
2022/03/21 08:28:55;;;;;;;17.50;5.47;;;;;;;4.22;61.10;103743.59;4955105;29;20271;-64
2022/03/21 08:31:20;;;;;;;27.90;5.40;;;;;;;4.56;60.54;103791.72;4954602;29;20027;-65
2022/03/21 08:33:46;;;;;;;20.53;5.53;;;;;;;4.58;60.94;103774.06;4953881;29;20058;-66
2022/03/21 08:36:12;;;;;;;17.77;6.87;;;;;;;4.66;60.55;103773.84;4953908;29;20110;-63
2022/03/21 08:38:39;;;;;;;20.13;5.83;;;;;;;4.62;59.62;103754.56;4936629;29;20471;-64
2022/03/21 08:41:05;;;;;;;29.20;6.83;;;;;;;4.83;59.55;103775.88;4953613;29;20483;-68
2022/03/21 08:43:31;;;;;;;19.27;6.23;;;;;;;4.96;59.71;103787.78;4953510;29;20258;-69
2022/03/21 08:45:57;;;;;;;21.47;6.50;;;;;;;5.10;59.17;103782.88;4953714;29;20118;-64
2022/03/21 08:49:23;;;;;;;21.80;8.10;;;;;;;5.21;58.78;103786.03;4953644;29;20286;-70
2022/03/21 08:51:09;;;;;;;22.03;6.17;;;;;;;5.34;58.46;103781.16;4953733;29;20247;-67
2022/03/21 08:53:35;;;;;;;26.07;5.77;;;;;;;5.42;59.08;103767.66;4953767;29;20269;-68
2022/03/21 08:56:00;;;;;;;22.37;5.40;;;;;;;5.52;58.30;103769.06;4954166;29;20059;-71
2022/03/21 08:58:27;;;;;;;24.60;5.87;;;;;;;5.69;57.23;103777.22;4937131;29;20090;-70
2022/03/21 09:00:52;;;;;;;21.33;6.43;;;;;;;5.81;56.63;103781.19;4955786;28;20034;-68
2022/03/21 09:03:18;;;;;;;23.80;5.60;;;;;;;5.88;56.62;103780.03;4959065;28;20275;-67
2022/03/21 09:05:46;;;;;;;16.80;5.67;;;;;;;5.95;56.10;103783.31;4957231;29;20038;-65
2022/03/21 09:08:11;;;;;;;20.27;5.77;;;;;;;6.02;54.69;103784.81;4957203;29;20037;-66
2022/03/21 09:10:37;;;;;;;14.03;4.57;;;;;;;6.03;55.77;103768.00;4957152;28;20263;-68
2022/03/21 09:13:05;;;;;;;39.10;6.43;;;;;;;6.12;54.64;103775.63;4966063;28;20055;-70
2022/03/21 09:23:57;;;;;;;16.77;3.80;;;;;;;6.38;53.57;103771.94;4978309;23;20062;-70
2022/03/21 09:26:48;;;;;;;13.47;5.10;;;;;;;6.48;53.12;103774.13;4976438;28;20298;-64
2022/03/21 09:29:14;;;;;;;13.03;4.50;;;;;;;6.57;52.16;103772.03;4958146;28;20301;-68
2022/03/21 09:31:40;;;;;;;19.53;3.33;;;;;;;6.66;52.73;103769.00;4976122;28;20258;-72
2022/03/21 09:34:11;;;;;;;16.20;5.10;;;;;;;6.58;51.74;103741.97;4976567;28;20170;-68
2022/03/21 09:36:38;;;;;;;12.00;4.40;;;;;;;6.87;51.60;103764.56;4971706;28;20043;-70
2022/03/21 09:39:05;;;;;;;18.30;3.90;;;;;;;6.90;51.22;103760.00;4958472;28;20097;-72
2022/03/21 09:41:32;;;;;;;19.03;3.77;;;;;;;6.88;51.49;103759.22;4975565;28;20270;-69
2022/03/21 09:44:03;;;;;;;8.17;3.40;;;;;;;6.99;50.69;103766.72;4976377;28;20038;-68
2022/03/21 09:46:32;;;;;;;11.00;3.27;;;;;;;6.99;50.90;103759.63;4977062;28;20035;-66
2022/03/21 09:48:58;;;;;;;15.17;3.63;;;;;;;7.08;51.24;103756.56;4977326;28;20122;-65
2022/03/21 09:51:28;;;;;;;14.90;3.83;;;;;;;7.09;50.02;103757.44;4960191;28;20074;-64
2022/03/21 09:53:54;;;;;;;17.70;4.57;;;;;;;7.06;50.67;103760.22;4972676;28;20046;-67
2022/03/21 09:56:21;;;;;;;11.47;4.20;;;;;;;7.04;50.01;103760.28;4984089;28;20035;-67
2022/03/21 09:58:50;;;;;;;11.90;4.77;;;;;;;7.08;50.08;103753.94;4984170;28;20524;-65
2022/03/21 10:01:16;;;;;;;14.17;5.40;;;;;;;7.15;49.88;103760.66;4983425;28;20090;-64
2022/03/21 10:03:43;;;;;;;26.83;4.70;;;;;;;7.21;50.32;103761.31;4987320;28;20039;-67
2022/03/21 10:06:33;;;;;;;23.67;4.60;;;;;;;7.31;50.67;103760.88;4966776;28;20042;-65
2022/03/21 10:09:10;;;;;;;17.57;5.17;;;;;;;7.33;50.57;103753.72;4949721;28;20090;-69
2022/03/21 10:11:37;;;;;;;26.17;5.77;;;;;;;7.34;50.71;103760.72;4983591;28;20027;-65
2022/03/21 10:14:28;;;;;;;17.03;4.43;;;;;;;7.38;50.33;103764.09;4978453;28;20061;-64
2022/03/21 10:17:03;;;;;;;8.97;4.17;;;;;;;7.38;49.92;103766.75;4974264;28;20450;-66
2022/03/21 10:19:45;;;;;;;10.27;3.23;;;;;;;7.36;49.62;103768.63;4975115;28;20486;-66
2022/03/21 10:22:13;;;;;;;14.87;4.13;;;;;;;7.30;49.84;103761.81;4975141;28;20042;-70
2022/03/21 10:24:45;;;;;;;18.55;4.57;;;;;;;7.34;50.00;103765.16;4974443;28;20054;-67
2022/03/21 10:27:38;;;;;;;13.53;4.20;;;;;;;7.43;49.54;103762.09;4974183;28;20042;-67
2022/03/21 10:30:15;;;;;;;9.53;4.10;;;;;;;7.42;50.28;103763.03;4975328;28;20078;-72
2022/03/21 10:32:46;;;;;;;14.70;4.43;;;;;;;7.46;49.41;103765.47;4973507;28;20038;-68
2022/03/21 10:35:16;;;;;;;19.17;3.83;;;;;;;7.55;49.25;103758.91;4975026;28;20101;-70
2022/03/21 10:37:45;;;;;;;12.77;3.80;;;;;;;7.63;49.07;103756.75;4974227;28;20062;-69
2022/03/21 10:40:18;;;;;;;11.30;3.80;;;;;;;7.74;48.62;103765.06;4957711;28;20034;-69
2022/03/21 10:42:55;;;;;;;12.80;4.47;;;;;;;7.71;49.15;103749.31;4974706;28;20037;-70
2022/03/21 10:45:25;;;;;;;11.87;5.03;;;;;;;7.87;48.44;103759.22;4972210;28;20509;-65
2022/03/21 10:47:52;;;;;;;9.20;4.00;;;;;;;7.88;48.06;103751.19;4973992;28;20038;-66
2022/03/21 10:50:29;;;;;;;13.47;4.33;;;;;;;7.93;47.95;103754.47;4971612;28;20031;-67
2022/03/21 10:53:17;;;;;;;19.37;4.37;;;;;;;7.97;48.38;103749.88;4973692;28;20552;-65
2022/03/21 10:55:48;;;;;;;11.02;4.97;;;;;;;7.97;47.15;103747.22;4974273;28;20042;-67
2022/03/21 10:58:16;;;;;;;11.27;4.50;;;;;;;7.98;46.88;103747.16;4973822;28;20121;-66
2022/03/21 11:00:41;;;;;;;16.70;4.60;;;;;;;8.01;47.57;103751.44;4973934;28;20038;-74
2022/03/21 11:03:16;;;;;;;17.50;5.90;;;;;;;8.02;47.89;103739.91;4974628;28;20432;-73
2022/03/21 11:05:41;;;;;;;15.80;4.53;;;;;;;8.10;48.15;103750.16;4975605;28;20038;-74
2022/03/21 11:08:09;;;;;;;11.63;5.00;;;;;;;8.07;47.84;103735.22;4975864;28;20177;-70
2022/03/21 11:10:35;;;;;;;19.57;6.07;;;;;;;8.19;47.43;103742.59;4973796;28;20098;-67
2022/03/21 11:13:03;;;;;;;18.13;5.37;;;;;;;8.22;47.78;103734.50;4973823;28;20058;-68
2022/03/21 11:15:30;;;;;;;27.00;5.60;;;;;;;8.26;46.84;103738.72;4976490;28;20030;-67
2022/03/21 11:17:59;;;;;;;22.77;4.70;;;;;;;8.30;47.82;103732.31;4973556;28;20105;-69
2022/03/21 11:20:28;;;;;;;15.00;3.77;;;;;;;8.35;47.14;103727.66;4973862;28;20042;-71
2022/03/21 11:22:55;;;;;;;20.85;5.50;;;;;;;8.33;47.85;103731.31;4973728;28;20318;-67
2022/03/21 11:25:23;;;;;;;14.63;3.83;;;;;;;8.33;47.48;103724.22;4972387;28;20490;-67
2022/03/21 11:27:58;;;;;;;12.43;4.85;;;;;;;8.43;47.24;103719.34;4970710;28;20038;-68
2022/03/21 11:31:11;;;;;;;14.33;3.90;;;;;;;8.55;47.35;103732.00;4973470;28;20504;-67
2022/03/21 11:33:52;;;;;;;9.57;3.33;;;;;;;8.45;46.51;103724.56;4973343;28;20045;-67
2022/03/21 11:36:17;;;;;;;15.47;3.67;;;;;;;8.46;46.92;103720.97;4970989;28;20555;-68
2022/03/21 11:38:46;;;;;;;10.50;3.27;;;;;;;8.49;46.83;103712.84;4973425;28;20042;-69
2022/03/21 11:41:22;;;;;;;13.32;3.97;;;;;;;8.54;46.45;103718.78;4973827;28;20039;-64
2022/03/21 11:44:06;;;;;;;13.47;4.43;;;;;;;8.61;47.28;103721.03;4973573;28;20061;-65
2022/03/21 11:46:37;;;;;;;23.70;5.23;;;;;;;8.65;46.54;103719.09;4973012;28;20045;-66
2022/03/21 11:49:17;;;;;;;25.07;5.27;;;;;;;8.73;46.04;103719.59;4973997;28;20042;-66
2022/03/21 11:51:45;;;;;;;22.80;5.00;;;;;;;8.65;46.54;103696.03;4973510;28;20117;-69
2022/03/21 11:54:30;;;;;;;17.80;4.37;;;;;;;8.85;46.14;103716.28;4973449;28;20420;-68
2022/03/21 11:57:00;;;;;;;13.63;3.90;;;;;;;8.84;45.83;103717.22;4956297;28;20038;-70
2022/03/21 11:59:34;;;;;;;15.47;6.23;;;;;;;8.86;45.77;103710.03;4974302;28;20055;-69